This is the latest recevied weather packets stored in our database for station/object KA6AKH-13. If no packets are shown the sender has not sent any weather packets the latest 10 day(s).
| Time | Temp. | Humidity | Pressure | Rain* | Wind** | Luminosity | Snow |
|---|---|---|---|---|---|---|---|
| 1777526832 | 13.33° C | 97% | 1007.1 hPa | 0 mm | - | - | - |
| 1777525105 | 12.78° C | 97% | 1007.5 hPa | 0 mm | - | - | - |
| 1777524972 | 12.78° C | 97% | 1007.5 hPa | 0 mm | - | - | - |
| 1777523142 | 12.78° C | 96% | 1007.3 hPa | 0 mm | - | - | - |
| 1777522512 | 12.78° C | 96% | 1007.3 hPa | 0 mm | - | - | - |
| 1777521912 | 13.33° C | 96% | 1007.2 hPa | 0 mm | - | - | - |
| 1777521471 | 13.33° C | 96% | 1007.1 hPa | 0 mm | - | - | - |
| 1777521282 | 13.33° C | 96% | 1007.1 hPa | 0 mm | - | - | - |
| 1777520052 | 13.33° C | 96% | 1007 hPa | 0 mm | - | - | - |
| 1777518162 | 13.89° C | 96% | 1007.5 hPa | 0 mm | - | - | - |
| 1777517532 | 13.89° C | 96% | 1007.5 hPa | 0 mm | - | - | - |
| 1777515672 | 13.89° C | 96% | 1007.5 hPa | 0 mm | - | - | - |
| 1777515072 | 15° C | 74% | 1017.1 hPa | 0 mm | - | - | - |
| 1777434433 | 15.56° C | 74% | 1016.8 hPa | 0 mm | - | - | - |
| 1777432033 | 15.56° C | 72% | 1016.9 hPa | 0 mm | - | - | - |
| 1777430173 | 15.56° C | 73% | 1016.9 hPa | 0 mm | - | - | - |
| 1777429543 | 15.56° C | 73% | 1017.3 hPa | 0 mm | - | - | - |
| 1777428943 | 15.56° C | 73% | 1017.6 hPa | 0 mm | - | - | - |
| 1777428313 | 16.11° C | 73% | 1017.5 hPa | 0 mm | - | - | - |
| 1777427113 | 16.11° C | 72% | 1017.3 hPa | 0 mm | - | - | - |
| 1777425283 | 16.67° C | 69% | 1015.8 hPa | 0 mm | - | - | - |
| 1777424653 | 16.67° C | 69% | 1015.8 hPa | 0 mm | - | - | - |
| 1777424052 | 16.67° C | 69% | 1015.5 hPa | 0 mm | - | - | - |
| 1777423453 | 16.67° C | 69% | 1015.7 hPa | 0 mm | - | - | - |
| 1777422823 | 17.22° C | 69% | 1016 hPa | 0 mm | - | - | - |
* Rain latest hour (hover to see other rain measurements)
** Current wind speed in m/s (hover to see current wind gust speed)